sensor_id;sensor_type;location;lat;lon;timestamp;P1;durP1;ratioP1;P2;durP2;ratioP2
62332;SDS011;48624;49.812;8.562;2023-03-21T00:00:27;104.50;;;100.22;;
62332;SDS011;48624;49.812;8.562;2023-03-21T00:02:52;116.93;;;112.72;;
62332;SDS011;48624;49.812;8.562;2023-03-21T00:05:18;95.03;;;91.22;;
62332;SDS011;48624;49.812;8.562;2023-03-21T00:07:44;98.00;;;94.28;;
62332;SDS011;48624;49.812;8.562;2023-03-21T00:10:10;93.43;;;89.90;;
62332;SDS011;48624;49.812;8.562;2023-03-21T00:12:35;98.75;;;94.88;;
62332;SDS011;48624;49.812;8.562;2023-03-21T00:15:01;89.07;;;85.57;;
62332;SDS011;48624;49.812;8.562;2023-03-21T00:17:31;79.05;;;76.05;;
62332;SDS011;48624;49.812;8.562;2023-03-21T00:19:57;93.75;;;90.18;;
62332;SDS011;48624;49.812;8.562;2023-03-21T00:22:24;84.50;;;81.15;;
62332;SDS011;48624;49.812;8.562;2023-03-21T00:24:50;81.82;;;78.53;;
62332;SDS011;48624;49.812;8.562;2023-03-21T00:27:16;90.30;;;86.95;;
62332;SDS011;48624;49.812;8.562;2023-03-21T00:29:43;71.38;;;68.55;;
62332;SDS011;48624;49.812;8.562;2023-03-21T00:32:09;108.43;;;104.47;;
62332;SDS011;48624;49.812;8.562;2023-03-21T00:34:36;113.25;;;109.22;;
62332;SDS011;48624;49.812;8.562;2023-03-21T00:37:02;117.40;;;112.85;;
62332;SDS011;48624;49.812;8.562;2023-03-21T00:39:27;118.28;;;113.90;;
62332;SDS011;48624;49.812;8.562;2023-03-21T00:41:53;131.55;;;126.57;;
62332;SDS011;48624;49.812;8.562;2023-03-21T00:44:18;112.07;;;107.68;;
62332;SDS011;48624;49.812;8.562;2023-03-21T00:46:43;117.53;;;113.05;;
62332;SDS011;48624;49.812;8.562;2023-03-21T00:49:09;99.72;;;95.95;;
62332;SDS011;48624;49.812;8.562;2023-03-21T00:51:34;103.30;;;99.05;;
62332;SDS011;48624;49.812;8.562;2023-03-21T00:54:00;99.75;;;95.90;;
62332;SDS011;48624;49.812;8.562;2023-03-21T00:56:25;87.85;;;84.63;;
62332;SDS011;48624;49.812;8.562;2023-03-21T00:58:50;101.85;;;98.18;;
62332;SDS011;48624;49.812;8.562;2023-03-21T01:01:16;114.50;;;110.20;;
62332;SDS011;48624;49.812;8.562;2023-03-21T01:03:42;90.80;;;87.38;;
62332;SDS011;48624;49.812;8.562;2023-03-21T01:06:15;97.32;;;93.28;;
62332;SDS011;48624;49.812;8.562;2023-03-21T01:08:43;108.80;;;104.68;;
62332;SDS011;48624;49.812;8.562;2023-03-21T01:11:12;118.75;;;114.60;;
62332;SDS011;48624;49.812;8.562;2023-03-21T01:13:41;112.93;;;108.82;;
62332;SDS011;48624;49.812;8.562;2023-03-21T01:16:07;105.57;;;101.35;;
62332;SDS011;48624;49.812;8.562;2023-03-21T01:18:33;124.47;;;120.05;;
62332;SDS011;48624;49.812;8.562;2023-03-21T01:21:00;100.10;;;96.40;;
62332;SDS011;48624;49.812;8.562;2023-03-21T01:23:29;112.43;;;107.88;;
62332;SDS011;48624;49.812;8.562;2023-03-21T01:25:55;110.82;;;106.75;;
62332;SDS011;48624;49.812;8.562;2023-03-21T01:28:21;117.47;;;112.78;;
62332;SDS011;48624;49.812;8.562;2023-03-21T01:30:49;113.35;;;109.03;;
62332;SDS011;48624;49.812;8.562;2023-03-21T01:33:15;136.43;;;131.32;;
62332;SDS011;48624;49.812;8.562;2023-03-21T01:35:42;144.88;;;139.73;;
62332;SDS011;48624;49.812;8.562;2023-03-21T01:38:08;155.18;;;149.70;;
62332;SDS011;48624;49.812;8.562;2023-03-21T01:40:34;149.95;;;144.50;;
62332;SDS011;48624;49.812;8.562;2023-03-21T01:43:01;163.88;;;157.68;;
62332;SDS011;48624;49.812;8.562;2023-03-21T01:48:32;142.07;;;136.98;;
62332;SDS011;48624;49.812;8.562;2023-03-21T01:50:58;160.48;;;154.73;;
62332;SDS011;48624;49.812;8.562;2023-03-21T01:53:25;151.15;;;145.65;;
62332;SDS011;48624;49.812;8.562;2023-03-21T01:55:55;149.32;;;143.50;;
62332;SDS011;48624;49.812;8.562;2023-03-21T01:58:24;142.63;;;137.50;;
62332;SDS011;48624;49.812;8.562;2023-03-21T02:00:50;142.23;;;136.63;;
62332;SDS011;48624;49.812;8.562;2023-03-21T02:03:16;142.43;;;137.30;;
62332;SDS011;48624;49.812;8.562;2023-03-21T02:05:53;158.10;;;152.07;;
62332;SDS011;48624;49.812;8.562;2023-03-21T02:08:24;147.20;;;142.02;;
62332;SDS011;48624;49.812;8.562;2023-03-21T02:10:51;147.00;;;141.50;;
62332;SDS011;48624;49.812;8.562;2023-03-21T02:13:16;166.57;;;160.60;;
62332;SDS011;48624;49.812;8.562;2023-03-21T02:15:45;150.68;;;145.02;;
62332;SDS011;48624;49.812;8.562;2023-03-21T02:18:22;119.57;;;115.28;;
62332;SDS011;48624;49.812;8.562;2023-03-21T02:32:06;110.65;;;106.60;;
62332;SDS011;48624;49.812;8.562;2023-03-21T02:37:23;103.30;;;99.60;;
62332;SDS011;48624;49.812;8.562;2023-03-21T02:40:09;112.97;;;109.03;;
62332;SDS011;48624;49.812;8.562;2023-03-21T02:43:00;124.75;;;119.97;;
62332;SDS011;48624;49.812;8.562;2023-03-21T02:45:44;113.30;;;109.13;;
62332;SDS011;48624;49.812;8.562;2023-03-21T02:48:18;120.47;;;116.03;;
62332;SDS011;48624;49.812;8.562;2023-03-21T02:50:50;126.85;;;122.22;;
62332;SDS011;48624;49.812;8.562;2023-03-21T02:53:21;137.00;;;132.02;;
62332;SDS011;48624;49.812;8.562;2023-03-21T02:55:49;129.45;;;124.38;;
62332;SDS011;48624;49.812;8.562;2023-03-21T02:58:18;128.43;;;123.38;;
62332;SDS011;48624;49.812;8.562;2023-03-21T03:00:45;122.15;;;117.38;;
62332;SDS011;48624;49.812;8.562;2023-03-21T03:03:12;120.03;;;115.70;;
62332;SDS011;48624;49.812;8.562;2023-03-21T03:05:44;129.70;;;125.10;;
62332;SDS011;48624;49.812;8.562;2023-03-21T03:18:40;113.57;;;109.57;;
62332;SDS011;48624;49.812;8.562;2023-03-21T03:21:09;120.88;;;116.10;;
62332;SDS011;48624;49.812;8.562;2023-03-21T03:24:00;114.75;;;110.28;;
62332;SDS011;48624;49.812;8.562;2023-03-21T03:27:09;123.15;;;118.53;;
62332;SDS011;48624;49.812;8.562;2023-03-21T03:29:39;121.88;;;117.45;;
62332;SDS011;48624;49.812;8.562;2023-03-21T03:32:25;123.38;;;118.82;;
62332;SDS011;48624;49.812;8.562;2023-03-21T03:34:55;118.75;;;114.50;;
62332;SDS011;48624;49.812;8.562;2023-03-21T03:37:29;130.48;;;125.53;;
62332;SDS011;48624;49.812;8.562;2023-03-21T03:40:03;126.43;;;121.72;;
62332;SDS011;48624;49.812;8.562;2023-03-21T03:42:33;135.32;;;130.48;;
62332;SDS011;48624;49.812;8.562;2023-03-21T03:45:01;138.65;;;133.38;;
62332;SDS011;48624;49.812;8.562;2023-03-21T03:47:37;136.45;;;131.43;;
62332;SDS011;48624;49.812;8.562;2023-03-21T03:50:13;134.55;;;129.70;;
62332;SDS011;48624;49.812;8.562;2023-03-21T03:52:41;132.50;;;127.43;;
62332;SDS011;48624;49.812;8.562;2023-03-21T03:55:13;135.07;;;130.00;;
62332;SDS011;48624;49.812;8.562;2023-03-21T03:57:41;136.10;;;131.20;;
62332;SDS011;48624;49.812;8.562;2023-03-21T04:00:09;132.38;;;127.45;;
62332;SDS011;48624;49.812;8.562;2023-03-21T04:02:37;151.05;;;145.60;;
62332;SDS011;48624;49.812;8.562;2023-03-21T04:05:02;141.88;;;136.77;;
62332;SDS011;48624;49.812;8.562;2023-03-21T04:07:29;135.80;;;131.07;;
62332;SDS011;48624;49.812;8.562;2023-03-21T04:09:55;135.55;;;130.70;;
62332;SDS011;48624;49.812;8.562;2023-03-21T04:12:21;137.20;;;132.13;;
62332;SDS011;48624;49.812;8.562;2023-03-21T04:14:49;140.30;;;135.30;;
62332;SDS011;48624;49.812;8.562;2023-03-21T04:17:15;136.25;;;131.23;;
62332;SDS011;48624;49.812;8.562;2023-03-21T04:19:41;148.05;;;142.68;;
62332;SDS011;48624;49.812;8.562;2023-03-21T04:22:06;148.77;;;143.32;;
62332;SDS011;48624;49.812;8.562;2023-03-21T04:24:32;156.00;;;150.45;;
62332;SDS011;48624;49.812;8.562;2023-03-21T04:26:57;161.73;;;156.05;;
62332;SDS011;48624;49.812;8.562;2023-03-21T04:29:23;160.13;;;154.02;;
62332;SDS011;48624;49.812;8.562;2023-03-21T04:31:49;147.90;;;142.80;;
62332;SDS011;48624;49.812;8.562;2023-03-21T04:34:15;163.38;;;157.48;;
62332;SDS011;48624;49.812;8.562;2023-03-21T04:36:40;146.02;;;140.73;;
62332;SDS011;48624;49.812;8.562;2023-03-21T04:39:09;152.15;;;146.68;;
62332;SDS011;48624;49.812;8.562;2023-03-21T04:41:38;155.50;;;149.77;;
62332;SDS011;48624;49.812;8.562;2023-03-21T04:44:06;163.07;;;156.95;;
62332;SDS011;48624;49.812;8.562;2023-03-21T04:46:32;185.73;;;178.70;;
62332;SDS011;48624;49.812;8.562;2023-03-21T04:48:58;165.02;;;158.95;;
62332;SDS011;48624;49.812;8.562;2023-03-21T04:51:23;162.07;;;156.13;;
62332;SDS011;48624;49.812;8.562;2023-03-21T04:53:49;163.18;;;156.95;;
62332;SDS011;48624;49.812;8.562;2023-03-21T04:56:16;160.45;;;154.35;;
62332;SDS011;48624;49.812;8.562;2023-03-21T04:58:42;146.00;;;140.38;;
62332;SDS011;48624;49.812;8.562;2023-03-21T05:01:07;129.18;;;124.00;;
62332;SDS011;48624;49.812;8.562;2023-03-21T05:03:33;139.13;;;133.73;;
62332;SDS011;48624;49.812;8.562;2023-03-21T05:06:03;136.65;;;131.43;;
62332;SDS011;48624;49.812;8.562;2023-03-21T05:08:33;130.65;;;125.60;;
62332;SDS011;48624;49.812;8.562;2023-03-21T05:11:02;129.73;;;124.88;;
62332;SDS011;48624;49.812;8.562;2023-03-21T05:13:27;127.65;;;122.82;;
62332;SDS011;48624;49.812;8.562;2023-03-21T05:15:53;136.38;;;131.63;;
62332;SDS011;48624;49.812;8.562;2023-03-21T05:18:18;134.32;;;129.50;;
62332;SDS011;48624;49.812;8.562;2023-03-21T05:20:49;125.25;;;120.22;;
62332;SDS011;48624;49.812;8.562;2023-03-21T05:23:20;139.00;;;133.80;;
62332;SDS011;48624;49.812;8.562;2023-03-21T05:25:47;147.35;;;141.93;;
62332;SDS011;48624;49.812;8.562;2023-03-21T05:28:13;146.25;;;141.02;;
62332;SDS011;48624;49.812;8.562;2023-03-21T05:30:43;149.23;;;143.65;;
62332;SDS011;48624;49.812;8.562;2023-03-21T05:33:11;152.13;;;146.60;;
62332;SDS011;48624;49.812;8.562;2023-03-21T05:35:37;155.20;;;149.65;;
62332;SDS011;48624;49.812;8.562;2023-03-21T05:38:03;153.55;;;147.82;;
62332;SDS011;48624;49.812;8.562;2023-03-21T05:40:28;163.55;;;157.43;;
62332;SDS011;48624;49.812;8.562;2023-03-21T05:42:54;156.13;;;150.57;;
62332;SDS011;48624;49.812;8.562;2023-03-21T05:45:19;156.55;;;150.90;;
62332;SDS011;48624;49.812;8.562;2023-03-21T05:47:45;164.55;;;158.57;;
62332;SDS011;48624;49.812;8.562;2023-03-21T05:50:12;161.35;;;155.32;;
62332;SDS011;48624;49.812;8.562;2023-03-21T05:52:37;164.05;;;158.02;;
62332;SDS011;48624;49.812;8.562;2023-03-21T05:55:05;160.77;;;154.63;;
62332;SDS011;48624;49.812;8.562;2023-03-21T05:57:31;170.00;;;163.68;;
62332;SDS011;48624;49.812;8.562;2023-03-21T05:59:59;187.45;;;180.50;;
62332;SDS011;48624;49.812;8.562;2023-03-21T06:02:25;172.07;;;165.90;;
62332;SDS011;48624;49.812;8.562;2023-03-21T06:04:50;168.93;;;162.73;;
62332;SDS011;48624;49.812;8.562;2023-03-21T06:07:15;168.43;;;162.07;;
62332;SDS011;48624;49.812;8.562;2023-03-21T06:09:41;145.20;;;139.77;;
62332;SDS011;48624;49.812;8.562;2023-03-21T06:12:07;142.75;;;137.63;;
62332;SDS011;48624;49.812;8.562;2023-03-21T06:14:33;133.73;;;128.65;;
62332;SDS011;48624;49.812;8.562;2023-03-21T06:16:58;147.82;;;142.52;;
62332;SDS011;48624;49.812;8.562;2023-03-21T06:19:25;128.50;;;123.72;;
62332;SDS011;48624;49.812;8.562;2023-03-21T06:21:50;131.75;;;127.05;;
62332;SDS011;48624;49.812;8.562;2023-03-21T06:24:15;134.35;;;129.30;;
62332;SDS011;48624;49.812;8.562;2023-03-21T06:26:41;135.57;;;130.30;;
62332;SDS011;48624;49.812;8.562;2023-03-21T06:29:07;131.90;;;127.05;;
62332;SDS011;48624;49.812;8.562;2023-03-21T06:31:32;128.15;;;123.28;;
62332;SDS011;48624;49.812;8.562;2023-03-21T06:33:59;125.22;;;120.68;;
62332;SDS011;48624;49.812;8.562;2023-03-21T06:36:24;132.43;;;127.63;;
62332;SDS011;48624;49.812;8.562;2023-03-21T06:38:50;118.10;;;113.38;;
62332;SDS011;48624;49.812;8.562;2023-03-21T06:41:17;306.05;;;294.52;;
62332;SDS011;48624;49.812;8.562;2023-03-21T06:43:44;111.93;;;107.38;;
62332;SDS011;48624;49.812;8.562;2023-03-21T06:46:10;97.63;;;94.13;;
62332;SDS011;48624;49.812;8.562;2023-03-21T06:48:35;123.97;;;119.18;;
62332;SDS011;48624;49.812;8.562;2023-03-21T06:51:01;89.55;;;86.07;;
62332;SDS011;48624;49.812;8.562;2023-03-21T06:53:29;96.32;;;92.47;;
62332;SDS011;48624;49.812;8.562;2023-03-21T06:55:55;88.25;;;85.00;;
62332;SDS011;48624;49.812;8.562;2023-03-21T06:58:21;159.23;;;152.52;;
62332;SDS011;48624;49.812;8.562;2023-03-21T07:00:47;131.25;;;126.47;;
62332;SDS011;48624;49.812;8.562;2023-03-21T07:03:13;119.72;;;115.05;;
62332;SDS011;48624;49.812;8.562;2023-03-21T07:05:40;90.82;;;87.30;;
62332;SDS011;48624;49.812;8.562;2023-03-21T07:08:06;96.30;;;92.07;;
62332;SDS011;48624;49.812;8.562;2023-03-21T07:10:39;94.78;;;90.78;;
62332;SDS011;48624;49.812;8.562;2023-03-21T07:13:06;86.00;;;82.75;;
62332;SDS011;48624;49.812;8.562;2023-03-21T07:15:31;124.68;;;119.60;;
62332;SDS011;48624;49.812;8.562;2023-03-21T07:17:58;81.38;;;77.95;;
62332;SDS011;48624;49.812;8.562;2023-03-21T07:20:23;114.65;;;109.97;;
62332;SDS011;48624;49.812;8.562;2023-03-21T07:22:50;66.57;;;63.97;;
62332;SDS011;48624;49.812;8.562;2023-03-21T07:25:16;63.35;;;60.55;;
62332;SDS011;48624;49.812;8.562;2023-03-21T07:27:41;71.00;;;68.00;;
62332;SDS011;48624;49.812;8.562;2023-03-21T07:30:07;71.65;;;68.60;;
62332;SDS011;48624;49.812;8.562;2023-03-21T07:32:35;75.03;;;72.00;;
62332;SDS011;48624;49.812;8.562;2023-03-21T07:35:02;115.55;;;110.82;;
62332;SDS011;48624;49.812;8.562;2023-03-21T07:37:27;76.32;;;73.18;;
62332;SDS011;48624;49.812;8.562;2023-03-21T07:39:53;123.90;;;118.72;;
62332;SDS011;48624;49.812;8.562;2023-03-21T07:42:18;86.82;;;83.38;;
62332;SDS011;48624;49.812;8.562;2023-03-21T07:44:44;94.55;;;90.63;;
62332;SDS011;48624;49.812;8.562;2023-03-21T07:47:09;88.50;;;84.97;;
62332;SDS011;48624;49.812;8.562;2023-03-21T07:49:35;82.32;;;78.72;;
62332;SDS011;48624;49.812;8.562;2023-03-21T07:52:01;90.35;;;86.53;;
62332;SDS011;48624;49.812;8.562;2023-03-21T07:54:26;82.13;;;78.90;;
62332;SDS011;48624;49.812;8.562;2023-03-21T07:56:53;99.22;;;95.35;;
62332;SDS011;48624;49.812;8.562;2023-03-21T07:59:18;101.20;;;97.15;;
62332;SDS011;48624;49.812;8.562;2023-03-21T08:01:44;103.60;;;99.60;;
62332;SDS011;48624;49.812;8.562;2023-03-21T08:04:10;99.57;;;95.78;;
62332;SDS011;48624;49.812;8.562;2023-03-21T08:06:36;110.88;;;106.60;;
62332;SDS011;48624;49.812;8.562;2023-03-21T08:09:01;101.00;;;97.05;;
62332;SDS011;48624;49.812;8.562;2023-03-21T08:11:27;101.32;;;97.50;;
62332;SDS011;48624;49.812;8.562;2023-03-21T08:13:55;91.97;;;88.60;;
62332;SDS011;48624;49.812;8.562;2023-03-21T08:16:21;126.10;;;121.32;;
62332;SDS011;48624;49.812;8.562;2023-03-21T08:18:46;99.70;;;95.90;;
62332;SDS011;48624;49.812;8.562;2023-03-21T08:21:11;75.68;;;72.82;;
62332;SDS011;48624;49.812;8.562;2023-03-21T08:23:37;83.35;;;80.03;;
62332;SDS011;48624;49.812;8.562;2023-03-21T08:26:02;73.70;;;70.68;;
62332;SDS011;48624;49.812;8.562;2023-03-21T08:28:28;48.72;;;46.53;;
62332;SDS011;48624;49.812;8.562;2023-03-21T08:30:53;18.33;;;17.33;;
62332;SDS011;48624;49.812;8.562;2023-03-21T08:33:19;13.07;;;12.07;;
62332;SDS011;48624;49.812;8.562;2023-03-21T08:35:44;14.00;;;13.13;;
62332;SDS011;48624;49.812;8.562;2023-03-21T08:38:10;13.50;;;12.18;;
62332;SDS011;48624;49.812;8.562;2023-03-21T08:40:36;9.00;;;8.30;;
62332;SDS011;48624;49.812;8.562;2023-03-21T08:43:02;8.15;;;5.88;;
62332;SDS011;48624;49.812;8.562;2023-03-21T08:45:27;7.35;;;2.80;;
62332;SDS011;48624;49.812;8.562;2023-03-21T08:47:53;7.07;;;3.83;;
62332;SDS011;48624;49.812;8.562;2023-03-21T08:50:22;6.45;;;3.50;;
62332;SDS011;48624;49.812;8.562;2023-03-21T08:52:50;7.72;;;6.93;;
62332;SDS011;48624;49.812;8.562;2023-03-21T08:55:16;10.73;;;9.52;;
62332;SDS011;48624;49.812;8.562;2023-03-21T08:57:43;7.15;;;5.95;;
62332;SDS011;48624;49.812;8.562;2023-03-21T09:00:09;7.25;;;4.68;;
62332;SDS011;48624;49.812;8.562;2023-03-21T09:02:38;5.25;;;4.72;;
62332;SDS011;48624;49.812;8.562;2023-03-21T09:05:16;7.07;;;4.43;;
62332;SDS011;48624;49.812;8.562;2023-03-21T09:07:42;4.93;;;4.38;;
62332;SDS011;48624;49.812;8.562;2023-03-21T09:10:10;7.82;;;5.68;;
62332;SDS011;48624;49.812;8.562;2023-03-21T09:12:37;8.15;;;3.78;;
62332;SDS011;48624;49.812;8.562;2023-03-21T09:15:03;4.55;;;2.95;;
62332;SDS011;48624;49.812;8.562;2023-03-21T09:17:29;4.30;;;2.75;;
62332;SDS011;48624;49.812;8.562;2023-03-21T09:19:56;7.10;;;3.53;;
62332;SDS011;48624;49.812;8.562;2023-03-21T09:22:24;6.60;;;2.50;;
62332;SDS011;48624;49.812;8.562;2023-03-21T09:24:52;6.22;;;4.60;;
62332;SDS011;48624;49.812;8.562;2023-03-21T09:27:18;8.57;;;4.07;;
62332;SDS011;48624;49.812;8.562;2023-03-21T09:29:49;5.28;;;4.85;;
62332;SDS011;48624;49.812;8.562;2023-03-21T09:32:14;5.00;;;3.50;;
62332;SDS011;48624;49.812;8.562;2023-03-21T09:34:41;7.25;;;5.28;;
62332;SDS011;48624;49.812;8.562;2023-03-21T09:37:07;11.60;;;10.60;;
62332;SDS011;48624;49.812;8.562;2023-03-21T09:39:37;8.20;;;5.65;;
62332;SDS011;48624;49.812;8.562;2023-03-21T09:47:23;7.50;;;3.63;;
62332;SDS011;48624;49.812;8.562;2023-03-21T09:50:11;8.80;;;2.65;;
62332;SDS011;48624;49.812;8.562;2023-03-21T09:55:21;6.38;;;5.30;;
62332;SDS011;48624;49.812;8.562;2023-03-21T09:58:01;4.88;;;3.15;;
62332;SDS011;48624;49.812;8.562;2023-03-21T10:00:47;4.85;;;2.85;;
62332;SDS011;48624;49.812;8.562;2023-03-21T10:03:29;7.07;;;3.65;;
62332;SDS011;48624;49.812;8.562;2023-03-21T10:05:58;6.80;;;3.10;;
62332;SDS011;48624;49.812;8.562;2023-03-21T10:08:31;4.65;;;2.92;;
62332;SDS011;48624;49.812;8.562;2023-03-21T10:13:38;3.92;;;2.50;;
62332;SDS011;48624;49.812;8.562;2023-03-21T10:16:12;3.05;;;2.05;;
62332;SDS011;48624;49.812;8.562;2023-03-21T10:18:46;3.60;;;2.50;;
62332;SDS011;48624;49.812;8.562;2023-03-21T10:21:24;3.47;;;2.72;;
62332;SDS011;48624;49.812;8.562;2023-03-21T10:23:52;4.35;;;2.28;;
62332;SDS011;48624;49.812;8.562;2023-03-21T10:26:21;3.92;;;2.55;;
62332;SDS011;48624;49.812;8.562;2023-03-21T10:28:51;6.97;;;3.78;;
62332;SDS011;48624;49.812;8.562;2023-03-21T10:31:20;6.45;;;5.90;;
62332;SDS011;48624;49.812;8.562;2023-03-21T10:33:50;14.40;;;13.77;;
62332;SDS011;48624;49.812;8.562;2023-03-21T10:36:20;7.35;;;6.60;;
62332;SDS011;48624;49.812;8.562;2023-03-21T10:38:55;9.57;;;8.88;;
62332;SDS011;48624;49.812;8.562;2023-03-21T10:41:24;21.98;;;20.88;;
62332;SDS011;48624;49.812;8.562;2023-03-21T10:46:47;16.27;;;15.57;;
62332;SDS011;48624;49.812;8.562;2023-03-21T10:49:16;20.67;;;19.52;;
62332;SDS011;48624;49.812;8.562;2023-03-21T10:51:42;15.32;;;14.23;;
62332;SDS011;48624;49.812;8.562;2023-03-21T10:54:13;21.35;;;19.95;;
62332;SDS011;48624;49.812;8.562;2023-03-21T11:02:27;157.52;;;152.18;;
62332;SDS011;48624;49.812;8.562;2023-03-21T11:04:56;173.57;;;167.68;;
62332;SDS011;48624;49.812;8.562;2023-03-21T11:07:43;110.55;;;106.60;;
62332;SDS011;48624;49.812;8.562;2023-03-21T11:10:13;172.20;;;166.10;;
62332;SDS011;48624;49.812;8.562;2023-03-21T11:12:41;165.23;;;159.55;;
62332;SDS011;48624;49.812;8.562;2023-03-21T11:15:29;146.13;;;140.88;;
62332;SDS011;48624;49.812;8.562;2023-03-21T11:18:12;121.85;;;117.50;;
62332;SDS011;48624;49.812;8.562;2023-03-21T11:20:46;180.82;;;174.43;;
62332;SDS011;48624;49.812;8.562;2023-03-21T11:23:20;157.90;;;152.35;;
62332;SDS011;48624;49.812;8.562;2023-03-21T11:25:51;182.13;;;175.52;;
62332;SDS011;48624;49.812;8.562;2023-03-21T11:28:18;189.43;;;182.95;;
62332;SDS011;48624;49.812;8.562;2023-03-21T11:30:53;297.00;;;285.92;;
62332;SDS011;48624;49.812;8.562;2023-03-21T11:33:21;285.42;;;275.30;;
62332;SDS011;48624;49.812;8.562;2023-03-21T11:36:02;351.33;;;338.50;;
62332;SDS011;48624;49.812;8.562;2023-03-21T11:38:36;314.70;;;303.48;;
62332;SDS011;48624;49.812;8.562;2023-03-21T11:41:04;261.08;;;251.48;;
62332;SDS011;48624;49.812;8.562;2023-03-21T11:43:31;311.33;;;300.17;;
62332;SDS011;48624;49.812;8.562;2023-03-21T11:46:12;305.48;;;294.23;;
62332;SDS011;48624;49.812;8.562;2023-03-21T11:51:13;292.50;;;282.20;;
62332;SDS011;48624;49.812;8.562;2023-03-21T11:56:50;164.73;;;158.57;;
62332;SDS011;48624;49.812;8.562;2023-03-21T12:01:59;227.88;;;219.45;;
62332;SDS011;48624;49.812;8.562;2023-03-21T12:04:40;217.13;;;209.63;;
62332;SDS011;48624;49.812;8.562;2023-03-21T12:10:28;181.15;;;174.73;;
62332;SDS011;48624;49.812;8.562;2023-03-21T12:15:42;241.05;;;232.40;;
62332;SDS011;48624;49.812;8.562;2023-03-21T12:21:16;155.95;;;150.55;;
62332;SDS011;48624;49.812;8.562;2023-03-21T12:24:07;248.13;;;239.27;;
62332;SDS011;48624;49.812;8.562;2023-03-21T12:29:58;168.77;;;162.68;;
62332;SDS011;48624;49.812;8.562;2023-03-21T12:32:47;170.15;;;163.88;;
62332;SDS011;48624;49.812;8.562;2023-03-21T12:38:22;192.95;;;186.10;;
62332;SDS011;48624;49.812;8.562;2023-03-21T12:41:22;169.68;;;163.75;;
62332;SDS011;48624;49.812;8.562;2023-03-21T12:46:40;200.80;;;193.52;;
62332;SDS011;48624;49.812;8.562;2023-03-21T12:49:08;188.38;;;181.82;;
62332;SDS011;48624;49.812;8.562;2023-03-21T12:51:41;114.95;;;110.68;;
62332;SDS011;48624;49.812;8.562;2023-03-21T12:57:08;207.30;;;200.18;;
62332;SDS011;48624;49.812;8.562;2023-03-21T12:59:42;201.13;;;193.82;;
62332;SDS011;48624;49.812;8.562;2023-03-21T13:02:33;187.53;;;180.87;;
62332;SDS011;48624;49.812;8.562;2023-03-21T13:05:21;197.18;;;190.38;;
62332;SDS011;48624;49.812;8.562;2023-03-21T13:07:57;177.05;;;170.88;;
62332;SDS011;48624;49.812;8.562;2023-03-21T13:10:23;192.82;;;186.20;;
62332;SDS011;48624;49.812;8.562;2023-03-21T13:18:30;149.57;;;144.43;;
62332;SDS011;48624;49.812;8.562;2023-03-21T13:27:20;192.27;;;185.35;;
62332;SDS011;48624;49.812;8.562;2023-03-21T13:29:53;310.98;;;300.08;;
62332;SDS011;48624;49.812;8.562;2023-03-21T13:32:48;264.25;;;254.88;;
62332;SDS011;48624;49.812;8.562;2023-03-21T13:37:57;357.65;;;344.30;;
62332;SDS011;48624;49.812;8.562;2023-03-21T13:43:02;279.90;;;269.33;;
62332;SDS011;48624;49.812;8.562;2023-03-21T13:45:45;332.40;;;320.50;;
62332;SDS011;48624;49.812;8.562;2023-03-21T13:48:32;223.65;;;215.52;;
62332;SDS011;48624;49.812;8.562;2023-03-21T13:51:07;255.95;;;246.18;;
62332;SDS011;48624;49.812;8.562;2023-03-21T13:53:40;276.50;;;266.48;;
62332;SDS011;48624;49.812;8.562;2023-03-21T13:56:19;323.55;;;311.55;;
62332;SDS011;48624;49.812;8.562;2023-03-21T14:04:10;402.70;;;387.48;;
62332;SDS011;48624;49.812;8.562;2023-03-21T14:06:42;382.05;;;367.50;;
62332;SDS011;48624;49.812;8.562;2023-03-21T14:09:18;363.33;;;349.67;;
62332;SDS011;48624;49.812;8.562;2023-03-21T14:11:54;391.42;;;375.63;;
62332;SDS011;48624;49.812;8.562;2023-03-21T14:14:22;404.95;;;389.58;;
62332;SDS011;48624;49.812;8.562;2023-03-21T14:16:53;378.73;;;364.00;;
62332;SDS011;48624;49.812;8.562;2023-03-21T14:19:30;304.95;;;294.13;;
62332;SDS011;48624;49.812;8.562;2023-03-21T14:21:56;337.48;;;325.20;;
62332;SDS011;48624;49.812;8.562;2023-03-21T14:24:22;370.02;;;355.98;;
62332;SDS011;48624;49.812;8.562;2023-03-21T14:26:49;405.13;;;389.88;;
62332;SDS011;48624;49.812;8.562;2023-03-21T14:29:20;349.63;;;336.30;;
62332;SDS011;48624;49.812;8.562;2023-03-21T14:31:50;367.02;;;353.25;;
62332;SDS011;48624;49.812;8.562;2023-03-21T14:34:20;386.85;;;372.63;;
62332;SDS011;48624;49.812;8.562;2023-03-21T14:36:46;402.08;;;386.48;;
62332;SDS011;48624;49.812;8.562;2023-03-21T14:39:22;432.00;;;414.10;;
62332;SDS011;48624;49.812;8.562;2023-03-21T14:41:52;414.60;;;398.90;;
62332;SDS011;48624;49.812;8.562;2023-03-21T14:44:23;439.48;;;422.27;;
62332;SDS011;48624;49.812;8.562;2023-03-21T14:47:24;416.25;;;399.85;;
62332;SDS011;48624;49.812;8.562;2023-03-21T14:54:20;404.38;;;388.98;;
62332;SDS011;48624;49.812;8.562;2023-03-21T15:04:09;406.65;;;391.40;;
62332;SDS011;48624;49.812;8.562;2023-03-21T15:10:29;403.83;;;388.58;;
62332;SDS011;48624;49.812;8.562;2023-03-21T15:29:04;397.88;;;382.85;;
62332;SDS011;48624;49.812;8.562;2023-03-21T15:31:35;414.45;;;399.08;;
62332;SDS011;48624;49.812;8.562;2023-03-21T15:34:19;400.20;;;385.35;;
62332;SDS011;48624;49.812;8.562;2023-03-21T15:36:57;411.20;;;395.65;;
62332;SDS011;48624;49.812;8.562;2023-03-21T15:39:26;413.50;;;398.15;;
62332;SDS011;48624;49.812;8.562;2023-03-21T15:44:27;429.88;;;413.42;;
62332;SDS011;48624;49.812;8.562;2023-03-21T15:46:54;452.58;;;435.20;;
62332;SDS011;48624;49.812;8.562;2023-03-21T15:49:30;425.85;;;409.45;;
62332;SDS011;48624;49.812;8.562;2023-03-21T15:52:04;440.73;;;423.10;;
62332;SDS011;48624;49.812;8.562;2023-03-21T15:54:48;400.50;;;385.13;;
62332;SDS011;48624;49.812;8.562;2023-03-21T15:57:27;413.85;;;398.23;;
62332;SDS011;48624;49.812;8.562;2023-03-21T16:02:42;425.25;;;409.20;;
62332;SDS011;48624;49.812;8.562;2023-03-21T16:07:49;430.60;;;413.92;;
62332;SDS011;48624;49.812;8.562;2023-03-21T16:10:28;474.85;;;455.35;;
62332;SDS011;48624;49.812;8.562;2023-03-21T16:12:56;411.30;;;395.08;;
62332;SDS011;48624;49.812;8.562;2023-03-21T16:15:25;435.45;;;418.83;;
62332;SDS011;48624;49.812;8.562;2023-03-21T16:17:58;442.05;;;424.77;;
62332;SDS011;48624;49.812;8.562;2023-03-21T16:20:27;426.33;;;410.15;;
62332;SDS011;48624;49.812;8.562;2023-03-21T16:22:56;438.27;;;421.50;;
62332;SDS011;48624;49.812;8.562;2023-03-21T16:25:22;435.45;;;418.63;;
62332;SDS011;48624;49.812;8.562;2023-03-21T16:27:48;436.88;;;419.67;;
62332;SDS011;48624;49.812;8.562;2023-03-21T16:30:18;445.92;;;428.48;;
62332;SDS011;48624;49.812;8.562;2023-03-21T16:32:45;441.55;;;424.45;;
62332;SDS011;48624;49.812;8.562;2023-03-21T16:35:27;433.73;;;417.00;;
62332;SDS011;48624;49.812;8.562;2023-03-21T16:37:52;447.95;;;430.05;;